createdAt,value
2023-03-29T00:00:08.994Z,6.10
2023-03-29T00:00:41.651Z,6.20
2023-03-29T00:01:35.441Z,6.10
2023-03-29T00:01:46.420Z,6.30
2023-03-29T00:02:12.595Z,5.70
2023-03-29T00:02:45.385Z,6.40
2023-03-29T00:03:18.320Z,6.00
2023-03-29T00:03:51.089Z,6.30
2023-03-29T00:04:23.849Z,6.30
2023-03-29T00:04:56.527Z,6.30
2023-03-29T00:05:29.187Z,5.90
2023-03-29T00:06:01.855Z,6.40
2023-03-29T00:06:34.518Z,6.60
2023-03-29T00:07:07.181Z,6.80
2023-03-29T00:07:39.840Z,6.50
2023-03-29T00:08:12.502Z,6.90
2023-03-29T00:08:45.180Z,6.80
2023-03-29T00:09:17.839Z,7.40
2023-03-29T00:09:50.521Z,6.90
2023-03-29T00:10:23.184Z,7.00
2023-03-29T00:10:55.861Z,6.80
2023-03-29T00:11:28.522Z,7.10
2023-03-29T00:12:01.320Z,7.00
2023-03-29T00:12:34.167Z,6.50
2023-03-29T00:13:06.792Z,6.80
2023-03-29T00:13:39.461Z,6.80
2023-03-29T00:14:12.135Z,6.70
2023-03-29T00:14:44.805Z,6.60
2023-03-29T00:15:17.576Z,6.90
2023-03-29T00:15:50.240Z,6.30
2023-03-29T00:16:22.938Z,5.80
2023-03-29T00:16:55.678Z,6.30
2023-03-29T00:17:28.403Z,6.40
2023-03-29T00:17:59.527Z,5.70
2023-03-29T00:18:32.202Z,6.30
2023-03-29T00:19:04.852Z,5.70
2023-03-29T00:19:37.541Z,6.20
2023-03-29T00:20:10.363Z,5.60
2023-03-29T00:20:43.093Z,5.90
2023-03-29T00:21:15.760Z,5.70
2023-03-29T00:21:48.441Z,5.80
2023-03-29T00:22:21.109Z,5.40
2023-03-29T00:22:53.780Z,5.90
2023-03-29T00:23:26.445Z,5.60
2023-03-29T00:23:59.107Z,5.60
2023-03-29T00:24:31.768Z,5.50
2023-03-29T00:25:04.442Z,5.90
2023-03-29T00:25:37.094Z,5.60
2023-03-29T00:26:09.766Z,5.70
2023-03-29T00:26:42.495Z,5.60
2023-03-29T00:27:15.119Z,5.80
2023-03-29T00:27:47.844Z,5.90
2023-03-29T00:28:20.475Z,5.90
2023-03-29T00:28:53.141Z,6.10
2023-03-29T00:29:25.808Z,5.80
2023-03-29T00:29:58.479Z,5.90
2023-03-29T00:30:31.193Z,6.00
2023-03-29T00:31:04.234Z,5.90
2023-03-29T00:31:30.611Z,5.70
2023-03-29T00:32:03.265Z,6.00
2023-03-29T00:32:35.983Z,5.50
2023-03-29T00:33:08.721Z,6.00
2023-03-29T00:33:41.443Z,6.20
2023-03-29T00:34:14.103Z,5.80
2023-03-29T00:34:46.784Z,5.70
2023-03-29T00:35:19.474Z,5.80
2023-03-29T00:35:52.146Z,5.90
2023-03-29T00:36:24.858Z,5.70
2023-03-29T00:36:57.524Z,5.70
2023-03-29T00:37:30.213Z,5.90
2023-03-29T00:38:02.885Z,5.70
2023-03-29T00:38:35.534Z,5.80
2023-03-29T00:39:08.223Z,6.40
2023-03-29T00:39:40.892Z,5.90
2023-03-29T00:40:13.570Z,5.90
2023-03-29T00:40:46.226Z,6.00
2023-03-29T00:41:18.892Z,5.90
2023-03-29T00:41:51.565Z,6.00
2023-03-29T00:42:24.235Z,6.00
2023-03-29T00:42:56.954Z,6.30
2023-03-29T00:43:29.581Z,5.90
2023-03-29T00:44:02.263Z,6.00
2023-03-29T00:44:33.343Z,5.80
2023-03-29T00:45:04.445Z,5.90
2023-03-29T00:45:37.115Z,5.70
2023-03-29T00:46:09.868Z,5.90
2023-03-29T00:46:42.581Z,6.10
2023-03-29T00:47:15.253Z,6.10
2023-03-29T00:47:47.964Z,6.10
2023-03-29T00:48:20.643Z,5.70
2023-03-29T00:48:53.312Z,6.10
2023-03-29T00:49:25.987Z,6.00
2023-03-29T00:49:58.649Z,5.80
2023-03-29T00:50:31.307Z,6.00
2023-03-29T00:51:04.333Z,5.80
2023-03-29T00:51:30.704Z,5.80
2023-03-29T00:52:03.365Z,5.80
2023-03-29T00:52:36.042Z,5.30
2023-03-29T00:53:08.705Z,5.30
2023-03-29T00:53:41.366Z,5.40
2023-03-29T00:54:14.042Z,5.80
2023-03-29T00:54:46.746Z,5.30
2023-03-29T00:55:19.415Z,5.60
2023-03-29T00:55:52.092Z,5.60
2023-03-29T00:56:24.746Z,5.50
2023-03-29T00:56:57.459Z,5.00
2023-03-29T00:57:30.157Z,4.80
2023-03-29T00:58:02.849Z,5.20
2023-03-29T00:58:35.495Z,5.00
2023-03-29T00:59:08.166Z,4.90
2023-03-29T00:59:40.836Z,5.10
2023-03-29T01:00:13.636Z,5.00
2023-03-29T01:00:46.306Z,5.30
2023-03-29T01:01:19.005Z,4.80
2023-03-29T01:01:51.732Z,4.70
2023-03-29T01:02:24.419Z,4.80
2023-03-29T01:02:57.168Z,4.80
2023-03-29T01:03:29.930Z,4.80
2023-03-29T01:04:02.719Z,4.60
2023-03-29T01:04:35.404Z,4.30
2023-03-29T01:05:08.078Z,4.50
2023-03-29T01:05:40.756Z,4.60
2023-03-29T01:06:13.420Z,4.50
2023-03-29T01:06:46.132Z,5.10
2023-03-29T01:07:18.888Z,4.30
2023-03-29T01:07:51.547Z,4.70
2023-03-29T01:08:24.206Z,4.50
2023-03-29T01:08:56.875Z,4.70
2023-03-29T01:09:29.532Z,4.70
2023-03-29T01:10:02.224Z,4.20
2023-03-29T01:10:34.870Z,4.50
2023-03-29T01:11:07.536Z,4.80
2023-03-29T01:11:40.209Z,4.60
2023-03-29T01:12:12.887Z,4.60
2023-03-29T01:12:45.569Z,4.20
2023-03-29T01:13:18.342Z,4.90
2023-03-29T01:13:50.977Z,4.50
2023-03-29T01:14:23.652Z,4.40
2023-03-29T01:14:56.341Z,4.60
2023-03-29T01:15:29.016Z,4.20
2023-03-29T01:16:01.740Z,4.20
2023-03-29T01:16:34.445Z,4.40
2023-03-29T01:17:07.085Z,4.50
2023-03-29T01:17:39.803Z,4.60
2023-03-29T01:18:12.486Z,4.20
2023-03-29T01:18:45.139Z,4.40
2023-03-29T01:19:17.820Z,4.30
2023-03-29T01:19:50.496Z,4.60
2023-03-29T01:20:23.168Z,4.60
2023-03-29T01:20:55.834Z,4.20
2023-03-29T01:21:28.505Z,4.10
2023-03-29T01:22:01.178Z,4.40
2023-03-29T01:22:33.854Z,4.10
2023-03-29T01:23:06.500Z,4.80
2023-03-29T01:23:39.168Z,4.10
2023-03-29T01:24:11.838Z,4.40
2023-03-29T01:24:44.542Z,4.10
2023-03-29T01:25:17.185Z,4.50
2023-03-29T01:25:49.868Z,4.50
2023-03-29T01:26:22.542Z,4.30
2023-03-29T01:26:55.217Z,4.00
2023-03-29T01:27:27.890Z,4.30
2023-03-29T01:28:00.556Z,4.10
2023-03-29T01:28:33.263Z,4.30
2023-03-29T01:29:05.899Z,4.30
2023-03-29T01:29:38.564Z,4.10
2023-03-29T01:30:11.250Z,4.00
2023-03-29T01:30:43.914Z,4.20
2023-03-29T01:31:16.606Z,4.00
2023-03-29T01:31:49.310Z,4.30
2023-03-29T01:32:21.989Z,3.70
2023-03-29T01:32:54.703Z,4.30
2023-03-29T01:33:27.358Z,3.90
2023-03-29T01:34:00.058Z,4.10
2023-03-29T01:34:32.730Z,4.10
2023-03-29T01:35:05.419Z,4.10
2023-03-29T01:35:38.122Z,4.20
2023-03-29T01:36:10.851Z,3.80
2023-03-29T01:36:43.489Z,3.50
2023-03-29T01:37:16.162Z,4.00
2023-03-29T01:37:48.826Z,3.70
2023-03-29T01:38:21.494Z,3.80
2023-03-29T01:38:54.164Z,4.00
2023-03-29T01:39:26.844Z,4.00
2023-03-29T01:39:57.938Z,3.60
2023-03-29T01:40:30.603Z,4.00
2023-03-29T01:41:03.786Z,3.60
2023-03-29T01:41:30.287Z,3.90
2023-03-29T01:42:02.951Z,3.70
2023-03-29T01:42:35.621Z,3.90
2023-03-29T01:43:08.289Z,3.70
2023-03-29T01:43:40.985Z,3.50
2023-03-29T01:44:13.626Z,3.60
2023-03-29T01:44:46.308Z,3.40
2023-03-29T01:45:18.972Z,3.50
2023-03-29T01:45:51.718Z,3.50
2023-03-29T01:46:24.406Z,3.60
2023-03-29T01:46:57.054Z,3.50
2023-03-29T01:47:29.754Z,3.60
2023-03-29T01:48:02.429Z,3.50
2023-03-29T01:48:35.076Z,3.40
2023-03-29T01:49:07.732Z,3.40
2023-03-29T01:49:40.419Z,3.70
2023-03-29T01:50:13.104Z,3.50
2023-03-29T01:50:45.768Z,3.50
2023-03-29T01:51:18.443Z,3.50
2023-03-29T01:51:51.114Z,3.10
2023-03-29T01:52:23.782Z,3.10
2023-03-29T01:52:56.464Z,3.40
2023-03-29T01:53:29.137Z,3.20
2023-03-29T01:54:01.807Z,3.50
2023-03-29T01:54:34.476Z,3.30
2023-03-29T01:55:07.155Z,3.40
2023-03-29T01:55:39.812Z,3.60
2023-03-29T01:56:12.506Z,3.30
2023-03-29T01:56:45.227Z,3.50
2023-03-29T01:57:17.917Z,3.10
2023-03-29T01:57:50.561Z,3.00
2023-03-29T01:58:23.233Z,3.50
2023-03-29T01:58:55.931Z,3.30
2023-03-29T01:59:28.560Z,3.00
2023-03-29T02:00:01.241Z,3.40
2023-03-29T02:00:33.906Z,3.30
2023-03-29T02:01:06.623Z,3.00
2023-03-29T02:01:39.490Z,3.30
2023-03-29T02:02:12.174Z,3.30
2023-03-29T02:02:44.907Z,3.40
2023-03-29T02:03:17.774Z,3.30
2023-03-29T02:03:50.506Z,3.30
2023-03-29T02:04:23.155Z,3.30
2023-03-29T02:04:55.841Z,3.20
2023-03-29T02:05:28.508Z,3.00
2023-03-29T02:06:01.177Z,3.40
2023-03-29T02:06:33.850Z,3.10
2023-03-29T02:07:06.507Z,3.60
2023-03-29T02:07:39.170Z,3.30
2023-03-29T02:08:11.835Z,3.40
2023-03-29T02:08:44.514Z,3.60
2023-03-29T02:09:17.213Z,3.50
2023-03-29T02:09:49.886Z,3.30
2023-03-29T02:10:22.544Z,3.50
2023-03-29T02:10:55.213Z,3.50
2023-03-29T02:11:27.901Z,3.60
2023-03-29T02:12:00.571Z,3.50
2023-03-29T02:12:33.239Z,3.40
2023-03-29T02:13:05.907Z,3.70
2023-03-29T02:13:38.583Z,3.30
2023-03-29T02:14:11.273Z,3.10
2023-03-29T02:14:43.937Z,3.50
2023-03-29T02:15:16.603Z,3.30
2023-03-29T02:15:49.346Z,3.10
2023-03-29T02:16:22.120Z,3.20
2023-03-29T02:16:54.871Z,3.20
2023-03-29T02:17:27.578Z,3.10
2023-03-29T02:18:00.262Z,3.30
2023-03-29T02:18:32.953Z,3.30
2023-03-29T02:19:05.617Z,3.40
2023-03-29T02:19:38.273Z,3.20
2023-03-29T02:20:10.966Z,3.00
2023-03-29T02:20:43.638Z,3.40
2023-03-29T02:21:16.313Z,3.30
2023-03-29T02:21:48.972Z,3.30
2023-03-29T02:22:21.639Z,3.30
2023-03-29T02:22:54.302Z,3.30
2023-03-29T02:23:26.969Z,3.00
2023-03-29T02:23:59.633Z,3.10
2023-03-29T02:24:32.312Z,3.20
2023-03-29T02:25:05.003Z,2.90
2023-03-29T02:25:37.676Z,3.20
2023-03-29T02:26:10.327Z,3.10
2023-03-29T02:26:43.004Z,3.10
2023-03-29T02:27:15.674Z,2.90
2023-03-29T02:27:48.336Z,3.30
2023-03-29T02:28:21.011Z,2.90
2023-03-29T02:28:53.677Z,2.90
2023-03-29T02:29:26.461Z,2.90
2023-03-29T02:29:59.149Z,3.10
2023-03-29T02:30:31.808Z,2.80
2023-03-29T02:31:04.862Z,3.00
2023-03-29T02:31:31.285Z,3.10
2023-03-29T02:32:03.918Z,3.20
2023-03-29T02:32:36.590Z,3.00
2023-03-29T02:33:09.281Z,3.00
2023-03-29T02:33:41.969Z,2.90
2023-03-29T02:34:14.642Z,3.00
2023-03-29T02:34:47.326Z,2.70
2023-03-29T02:35:19.995Z,2.90
2023-03-29T02:35:52.720Z,3.00
2023-03-29T02:36:25.368Z,2.80
2023-03-29T02:36:58.029Z,2.80
2023-03-29T02:37:30.696Z,2.90
2023-03-29T02:38:03.365Z,3.10
2023-03-29T02:38:36.034Z,3.20
2023-03-29T02:39:08.695Z,2.60
2023-03-29T02:39:41.390Z,3.10
2023-03-29T02:40:14.050Z,3.40
2023-03-29T02:40:46.733Z,2.70
2023-03-29T02:41:19.394Z,3.10
2023-03-29T02:41:52.064Z,2.60
2023-03-29T02:42:24.735Z,2.90
2023-03-29T02:42:57.409Z,3.20
2023-03-29T02:43:30.055Z,3.10
2023-03-29T02:44:02.753Z,2.80
2023-03-29T02:44:35.444Z,2.90
2023-03-29T02:45:08.111Z,3.10
2023-03-29T02:45:40.770Z,2.70
2023-03-29T02:46:13.504Z,2.90
2023-03-29T02:46:46.257Z,2.90
2023-03-29T02:47:18.902Z,3.00
2023-03-29T02:47:51.607Z,3.00
2023-03-29T02:48:24.340Z,2.90
2023-03-29T02:48:57.002Z,2.90
2023-03-29T02:49:29.686Z,3.00
2023-03-29T02:50:02.363Z,3.00
2023-03-29T02:50:35.027Z,3.00
2023-03-29T02:51:07.695Z,2.90
2023-03-29T02:51:40.359Z,2.70
2023-03-29T02:52:13.025Z,2.90
2023-03-29T02:52:45.685Z,3.10
2023-03-29T02:53:18.358Z,3.00
2023-03-29T02:53:51.020Z,3.00
2023-03-29T02:54:23.680Z,3.00
2023-03-29T02:54:56.379Z,2.80
2023-03-29T02:55:29.023Z,3.00
2023-03-29T02:56:01.719Z,3.20
2023-03-29T02:56:34.374Z,3.40
2023-03-29T02:57:07.063Z,2.90
2023-03-29T02:57:39.719Z,3.40
2023-03-29T02:58:12.395Z,2.90
2023-03-29T02:58:45.053Z,3.00
2023-03-29T02:59:17.728Z,3.00
2023-03-29T02:59:50.435Z,3.00
2023-03-29T03:00:23.098Z,3.10
2023-03-29T03:00:55.787Z,3.10
2023-03-29T03:01:28.482Z,3.10
2023-03-29T03:02:01.164Z,3.00
2023-03-29T03:02:33.963Z,3.10
2023-03-29T03:03:05.144Z,3.10
2023-03-29T03:03:37.997Z,3.10
2023-03-29T03:04:10.826Z,3.00
2023-03-29T03:04:43.663Z,3.20
2023-03-29T03:05:16.327Z,3.20
2023-03-29T03:05:49.036Z,3.10
2023-03-29T03:06:21.680Z,3.40
2023-03-29T03:06:54.350Z,3.30
2023-03-29T03:07:27.041Z,3.30
2023-03-29T03:07:59.702Z,3.60
2023-03-29T03:08:32.386Z,3.40
2023-03-29T03:09:05.105Z,3.90
2023-03-29T03:09:37.762Z,3.30
2023-03-29T03:10:10.428Z,3.70
2023-03-29T03:10:43.101Z,3.70
2023-03-29T03:11:15.761Z,3.60
2023-03-29T03:11:48.431Z,3.30
2023-03-29T03:12:21.086Z,3.40
2023-03-29T03:12:53.758Z,3.30
2023-03-29T03:13:24.836Z,3.20
2023-03-29T03:13:57.504Z,3.40
2023-03-29T03:14:30.186Z,3.40
2023-03-29T03:15:02.884Z,3.40
2023-03-29T03:15:35.563Z,3.40
2023-03-29T03:16:08.312Z,3.30
2023-03-29T03:16:41.016Z,3.40
2023-03-29T03:17:13.726Z,3.70
2023-03-29T03:17:46.445Z,3.90
2023-03-29T03:18:19.116Z,3.90
2023-03-29T03:18:51.788Z,3.50
2023-03-29T03:19:24.448Z,3.60
2023-03-29T03:19:57.117Z,3.60
2023-03-29T03:20:29.774Z,3.50
2023-03-29T03:21:02.724Z,3.70
2023-03-29T03:21:29.032Z,3.70
2023-03-29T03:22:01.712Z,3.80
2023-03-29T03:22:34.359Z,3.80
2023-03-29T03:23:07.029Z,4.00
2023-03-29T03:23:39.690Z,3.80
2023-03-29T03:24:12.361Z,3.80
2023-03-29T03:24:45.062Z,4.00
2023-03-29T03:25:17.723Z,3.90
2023-03-29T03:25:50.403Z,3.90
2023-03-29T03:26:23.065Z,3.80
2023-03-29T03:26:55.726Z,4.20
2023-03-29T03:27:28.394Z,3.70
2023-03-29T03:28:01.056Z,4.10
2023-03-29T03:28:33.726Z,4.10
2023-03-29T03:29:06.390Z,4.10
2023-03-29T03:29:39.049Z,4.40
2023-03-29T03:30:11.752Z,4.20
2023-03-29T03:30:44.393Z,4.40
2023-03-29T03:31:17.251Z,4.30
2023-03-29T03:31:50.788Z,4.20
2023-03-29T03:32:18.687Z,4.10
2023-03-29T03:32:51.423Z,4.40
2023-03-29T03:33:24.089Z,4.40
2023-03-29T03:33:56.761Z,4.70
2023-03-29T03:34:29.422Z,4.20
2023-03-29T03:35:02.098Z,4.60
2023-03-29T03:35:34.801Z,4.30
2023-03-29T03:36:07.485Z,4.30
2023-03-29T03:36:40.152Z,4.50
2023-03-29T03:37:12.933Z,4.50
2023-03-29T03:37:45.607Z,4.70
2023-03-29T03:38:18.273Z,4.30
2023-03-29T03:38:50.961Z,4.80
2023-03-29T03:39:23.627Z,4.60
2023-03-29T03:39:56.291Z,4.60
2023-03-29T03:40:28.959Z,4.70
2023-03-29T03:41:02.079Z,4.80
2023-03-29T03:41:28.424Z,4.50
2023-03-29T03:42:01.122Z,5.00
2023-03-29T03:42:33.791Z,4.80
2023-03-29T03:43:06.448Z,4.60
2023-03-29T03:43:39.096Z,4.50
2023-03-29T03:44:11.761Z,4.60
2023-03-29T03:44:44.437Z,5.00
2023-03-29T03:45:17.123Z,4.90
2023-03-29T03:45:49.810Z,4.90
2023-03-29T03:46:22.485Z,5.00
2023-03-29T03:46:55.137Z,4.80
2023-03-29T03:47:27.848Z,5.00
2023-03-29T03:48:00.592Z,4.60
2023-03-29T03:48:33.329Z,4.90
2023-03-29T03:49:06.001Z,4.80
2023-03-29T03:49:38.666Z,4.90
2023-03-29T03:50:11.356Z,5.00
2023-03-29T03:50:44.020Z,4.80
2023-03-29T03:51:16.687Z,5.20
2023-03-29T03:51:51.027Z,5.20
2023-03-29T03:52:18.697Z,4.90
2023-03-29T03:52:51.364Z,5.30
2023-03-29T03:53:24.036Z,5.10
2023-03-29T03:53:56.706Z,4.90
2023-03-29T03:54:29.366Z,5.10
2023-03-29T03:55:02.075Z,5.10
2023-03-29T03:55:34.721Z,5.30
2023-03-29T03:56:07.406Z,5.10
2023-03-29T03:56:40.144Z,4.90
2023-03-29T03:57:12.896Z,5.00
2023-03-29T03:57:45.542Z,5.30
2023-03-29T03:58:18.218Z,4.70
2023-03-29T03:58:50.910Z,5.20
2023-03-29T03:59:23.570Z,5.00
2023-03-29T03:59:56.255Z,5.00
2023-03-29T04:00:28.946Z,5.30
2023-03-29T04:01:01.857Z,5.10
2023-03-29T04:01:28.161Z,5.10
2023-03-29T04:02:00.891Z,4.90
2023-03-29T04:02:33.677Z,4.90
2023-03-29T04:03:06.613Z,5.00
2023-03-29T04:03:33.003Z,4.50
2023-03-29T04:04:05.686Z,5.00
2023-03-29T04:04:38.341Z,4.90
2023-03-29T04:05:11.016Z,4.60
2023-03-29T04:05:43.680Z,4.70
2023-03-29T04:06:16.361Z,5.20
2023-03-29T04:06:49.015Z,4.60
2023-03-29T04:07:21.678Z,4.90
2023-03-29T04:07:54.346Z,5.10
2023-03-29T04:08:27.011Z,4.90
2023-03-29T04:08:59.679Z,4.90
2023-03-29T04:09:32.353Z,4.80
2023-03-29T04:10:05.036Z,4.60
2023-03-29T04:10:37.705Z,5.00
2023-03-29T04:11:10.385Z,5.00
2023-03-29T04:11:43.043Z,4.40
2023-03-29T04:12:15.714Z,4.90
2023-03-29T04:12:48.366Z,5.10
2023-03-29T04:13:21.036Z,4.60
2023-03-29T04:13:53.693Z,4.80
2023-03-29T04:14:26.372Z,4.70
2023-03-29T04:14:59.061Z,4.40
2023-03-29T04:15:31.753Z,4.70
2023-03-29T04:16:04.459Z,4.60
2023-03-29T04:16:37.096Z,4.60
2023-03-29T04:17:09.743Z,4.70
2023-03-29T04:17:42.582Z,4.80
2023-03-29T04:18:15.450Z,4.60
2023-03-29T04:18:48.206Z,4.70
2023-03-29T04:19:20.874Z,4.50
2023-03-29T04:19:53.564Z,4.80
2023-03-29T04:20:26.224Z,4.70
2023-03-29T04:20:58.962Z,4.50
2023-03-29T04:21:31.636Z,4.20
2023-03-29T04:22:04.306Z,4.60
2023-03-29T04:22:36.976Z,4.70
2023-03-29T04:23:09.642Z,4.70
2023-03-29T04:23:42.301Z,5.00
2023-03-29T04:24:14.963Z,4.70
2023-03-29T04:24:47.648Z,4.40
2023-03-29T04:25:20.314Z,4.80
2023-03-29T04:25:52.986Z,4.30
2023-03-29T04:26:25.663Z,4.60
2023-03-29T04:26:58.336Z,4.60
2023-03-29T04:27:30.996Z,4.50
2023-03-29T04:28:03.666Z,4.60
2023-03-29T04:28:36.339Z,4.40
2023-03-29T04:29:08.995Z,4.30
2023-03-29T04:29:41.680Z,4.10
2023-03-29T04:30:14.344Z,4.10
2023-03-29T04:30:47.252Z,4.20
2023-03-29T04:31:20.044Z,4.20
2023-03-29T04:31:52.916Z,4.50
2023-03-29T04:32:25.675Z,4.10
2023-03-29T04:32:58.364Z,4.40
2023-03-29T04:33:31.048Z,4.30
2023-03-29T04:34:03.716Z,4.20
2023-03-29T04:34:36.384Z,4.00
2023-03-29T04:35:09.078Z,4.10
2023-03-29T04:35:41.829Z,4.20
2023-03-29T04:36:14.527Z,4.20
2023-03-29T04:36:47.227Z,4.50
2023-03-29T04:37:19.882Z,4.20
2023-03-29T04:37:52.561Z,4.20
2023-03-29T04:38:25.232Z,4.30
2023-03-29T04:38:57.892Z,4.00
2023-03-29T04:39:30.562Z,4.50
2023-03-29T04:40:03.247Z,4.50
2023-03-29T04:40:35.909Z,4.30
2023-03-29T04:41:08.572Z,4.20
2023-03-29T04:41:41.251Z,4.10
2023-03-29T04:42:13.915Z,4.10
2023-03-29T04:42:46.587Z,4.10
2023-03-29T04:43:19.256Z,4.00
2023-03-29T04:43:51.950Z,4.10
2023-03-29T04:44:24.599Z,4.10
2023-03-29T04:44:57.320Z,4.20
2023-03-29T04:45:30.012Z,4.30
2023-03-29T04:46:02.721Z,4.00
2023-03-29T04:46:35.424Z,4.10
2023-03-29T04:47:08.151Z,3.80
2023-03-29T04:47:40.862Z,4.20
2023-03-29T04:48:13.517Z,4.00
2023-03-29T04:48:46.174Z,3.80
2023-03-29T04:49:18.842Z,4.00
2023-03-29T04:49:51.518Z,4.10
2023-03-29T04:50:24.191Z,4.10
2023-03-29T04:50:56.859Z,4.20
2023-03-29T04:51:29.523Z,4.20
2023-03-29T04:52:02.193Z,4.20
2023-03-29T04:52:34.844Z,4.00
2023-03-29T04:53:07.517Z,4.60
2023-03-29T04:53:40.184Z,4.20
2023-03-29T04:54:12.872Z,4.40
2023-03-29T04:54:45.539Z,3.90
2023-03-29T04:55:18.202Z,4.20
2023-03-29T04:55:50.874Z,4.00
2023-03-29T04:56:23.552Z,4.20
2023-03-29T04:56:54.664Z,4.30
2023-03-29T04:57:27.362Z,4.40
2023-03-29T04:58:00.014Z,4.00
2023-03-29T04:58:32.923Z,3.90
2023-03-29T04:59:05.622Z,4.00
2023-03-29T04:59:38.284Z,4.40
2023-03-29T05:00:10.976Z,4.30
2023-03-29T05:00:43.657Z,3.90
2023-03-29T05:01:16.325Z,4.30
2023-03-29T05:01:49.045Z,4.00
2023-03-29T05:02:21.757Z,3.90
2023-03-29T05:02:54.472Z,3.90
2023-03-29T05:03:27.128Z,3.70
2023-03-29T05:03:59.830Z,4.00
2023-03-29T05:04:32.525Z,3.80
2023-03-29T05:05:05.211Z,4.00
2023-03-29T05:05:37.878Z,3.90
2023-03-29T05:06:10.549Z,3.90
2023-03-29T05:06:43.213Z,4.20
2023-03-29T05:07:15.870Z,3.70
2023-03-29T05:07:48.537Z,4.00
2023-03-29T05:08:21.207Z,4.30
2023-03-29T05:08:53.882Z,4.10
2023-03-29T05:09:26.551Z,4.10
2023-03-29T05:09:59.261Z,4.00
2023-03-29T05:10:31.914Z,4.80
2023-03-29T05:11:04.773Z,4.30
2023-03-29T05:11:37.499Z,4.40
2023-03-29T05:12:10.157Z,4.30
2023-03-29T05:12:42.842Z,4.30
2023-03-29T05:13:15.500Z,3.70
2023-03-29T05:13:48.195Z,4.10
2023-03-29T05:14:20.844Z,4.00
2023-03-29T05:14:53.547Z,4.20
2023-03-29T05:15:26.205Z,4.30
2023-03-29T05:15:58.884Z,4.00
2023-03-29T05:16:31.560Z,3.90
2023-03-29T05:17:04.228Z,3.60
2023-03-29T05:17:36.895Z,3.90
2023-03-29T05:18:09.621Z,4.10
2023-03-29T05:18:42.309Z,3.90
2023-03-29T05:19:14.974Z,3.80
2023-03-29T05:19:47.661Z,3.80
2023-03-29T05:20:20.344Z,4.10
2023-03-29T05:20:53.041Z,4.00
2023-03-29T05:21:25.724Z,3.60
2023-03-29T05:21:58.391Z,3.90
2023-03-29T05:22:31.069Z,4.10
2023-03-29T05:23:03.732Z,3.50
2023-03-29T05:23:36.403Z,3.80
2023-03-29T05:24:09.063Z,4.00
2023-03-29T05:24:41.739Z,3.80
2023-03-29T05:25:14.412Z,3.70
2023-03-29T05:25:47.080Z,3.50
2023-03-29T05:26:19.740Z,3.60
2023-03-29T05:26:52.416Z,3.50
2023-03-29T05:27:25.086Z,3.60
2023-03-29T05:27:57.753Z,3.80
2023-03-29T05:28:30.422Z,3.40
2023-03-29T05:29:03.091Z,3.80
2023-03-29T05:29:35.748Z,4.10
2023-03-29T05:30:08.431Z,4.10
2023-03-29T05:30:41.088Z,3.90
2023-03-29T05:31:16.166Z,4.30
2023-03-29T05:31:43.098Z,4.00
2023-03-29T05:32:15.820Z,3.70
2023-03-29T05:32:48.481Z,3.80
2023-03-29T05:33:21.150Z,3.70
2023-03-29T05:33:53.802Z,3.60
2023-03-29T05:34:26.473Z,3.80
2023-03-29T05:34:59.155Z,4.30
2023-03-29T05:35:31.840Z,3.90
2023-03-29T05:36:04.583Z,4.10
2023-03-29T05:36:37.402Z,4.20
2023-03-29T05:37:10.083Z,4.20
2023-03-29T05:37:42.744Z,4.80
2023-03-29T05:38:15.407Z,4.10
2023-03-29T05:38:48.095Z,4.70
2023-03-29T05:39:20.749Z,4.10
2023-03-29T05:39:53.434Z,4.60
2023-03-29T05:40:25.542Z,4.60
2023-03-29T05:40:51.699Z,5.40
2023-03-29T05:41:24.369Z,4.80
2023-03-29T05:41:57.047Z,4.70
2023-03-29T05:42:29.710Z,4.40
2023-03-29T05:43:02.376Z,4.10
2023-03-29T05:43:35.063Z,4.40
2023-03-29T05:44:07.723Z,4.00
2023-03-29T05:44:40.377Z,4.00
2023-03-29T05:45:13.086Z,4.50
2023-03-29T05:45:45.798Z,3.90
2023-03-29T05:46:18.488Z,4.30
2023-03-29T05:46:51.138Z,4.30
2023-03-29T05:47:23.870Z,4.10
2023-03-29T05:47:56.559Z,3.80
2023-03-29T05:48:29.221Z,4.20
2023-03-29T05:49:01.892Z,4.10
2023-03-29T05:49:34.559Z,4.00
2023-03-29T05:50:07.251Z,3.90
2023-03-29T05:50:39.919Z,3.50
2023-03-29T05:51:12.577Z,3.80
2023-03-29T05:51:45.268Z,3.50
2023-03-29T05:52:17.939Z,3.60
2023-03-29T05:52:50.605Z,3.70
2023-03-29T05:53:23.280Z,3.80
2023-03-29T05:53:55.948Z,3.50
2023-03-29T05:54:28.634Z,3.10
2023-03-29T05:55:01.306Z,3.70
2023-03-29T05:55:34.007Z,3.50
2023-03-29T05:56:06.645Z,3.50
2023-03-29T05:56:39.357Z,3.90
2023-03-29T05:57:12.055Z,3.50
2023-03-29T05:57:44.727Z,3.70
2023-03-29T05:58:17.394Z,3.70
2023-03-29T05:58:50.920Z,3.80
2023-03-29T05:59:17.973Z,3.60
2023-03-29T05:59:50.677Z,3.80
2023-03-29T06:00:23.334Z,3.60
2023-03-29T06:00:55.988Z,3.60
2023-03-29T06:01:28.661Z,3.50
2023-03-29T06:02:01.343Z,3.70
2023-03-29T06:02:34.179Z,3.60
2023-03-29T06:03:17.525Z,3.60
2023-03-29T06:03:39.144Z,3.60
2023-03-29T06:04:05.422Z,3.80
2023-03-29T06:04:38.280Z,3.50
2023-03-29T06:05:11.012Z,3.70
2023-03-29T06:05:43.675Z,3.20
2023-03-29T06:06:16.564Z,3.80
2023-03-29T06:06:49.314Z,3.60
2023-03-29T06:07:22.072Z,3.60
2023-03-29T06:07:54.750Z,3.90
2023-03-29T06:08:27.426Z,3.60
2023-03-29T06:09:00.102Z,3.30
2023-03-29T06:09:32.787Z,3.50
2023-03-29T06:10:05.500Z,3.70
2023-03-29T06:10:38.146Z,3.90
2023-03-29T06:11:10.861Z,3.40
2023-03-29T06:11:43.519Z,3.40
2023-03-29T06:12:16.187Z,3.80
2023-03-29T06:12:48.861Z,4.00
2023-03-29T06:13:21.523Z,3.40
2023-03-29T06:13:54.201Z,3.70
2023-03-29T06:14:26.913Z,3.50
2023-03-29T06:14:59.610Z,3.20
2023-03-29T06:15:32.271Z,3.90
2023-03-29T06:16:04.945Z,3.50
2023-03-29T06:16:38.325Z,3.70
2023-03-29T06:17:05.755Z,3.40
2023-03-29T06:17:38.542Z,3.60
2023-03-29T06:18:11.297Z,3.40
2023-03-29T06:18:43.952Z,3.40
2023-03-29T06:19:16.633Z,3.50
2023-03-29T06:19:49.303Z,3.70
2023-03-29T06:20:22.038Z,3.30
2023-03-29T06:20:54.706Z,3.60
2023-03-29T06:21:27.391Z,3.40
2023-03-29T06:22:00.096Z,3.60
2023-03-29T06:22:32.758Z,3.30
2023-03-29T06:23:05.418Z,3.40
2023-03-29T06:23:38.079Z,3.90
2023-03-29T06:24:10.883Z,3.50
2023-03-29T06:24:43.567Z,3.60
2023-03-29T06:25:16.231Z,3.70
2023-03-29T06:25:48.918Z,3.80
2023-03-29T06:26:21.593Z,4.00
2023-03-29T06:26:54.270Z,3.70
2023-03-29T06:27:26.945Z,3.40
2023-03-29T06:27:59.642Z,3.60
2023-03-29T06:28:32.302Z,3.50
2023-03-29T06:29:05.016Z,3.60
2023-03-29T06:29:37.684Z,3.50
2023-03-29T06:30:10.354Z,3.80
2023-03-29T06:30:43.023Z,3.60
2023-03-29T06:31:15.870Z,3.70
2023-03-29T06:31:48.573Z,3.80
2023-03-29T06:32:21.282Z,4.10
2023-03-29T06:32:54.038Z,4.30
2023-03-29T06:33:26.669Z,3.90
2023-03-29T06:33:59.337Z,4.10
2023-03-29T06:34:32.009Z,3.60
2023-03-29T06:35:04.694Z,4.10
2023-03-29T06:35:37.414Z,3.70
2023-03-29T06:36:10.077Z,4.20
2023-03-29T06:36:42.730Z,4.20
2023-03-29T06:37:15.392Z,4.30
2023-03-29T06:37:48.041Z,3.70
2023-03-29T06:38:20.714Z,3.70
2023-03-29T06:38:53.374Z,3.80
2023-03-29T06:39:26.145Z,3.70
2023-03-29T06:39:59.865Z,3.40
2023-03-29T06:40:30.762Z,3.50
2023-03-29T06:41:03.920Z,3.30
2023-03-29T06:41:30.427Z,3.10
2023-03-29T06:42:13.011Z,3.60
2023-03-29T06:42:35.176Z,3.70
2023-03-29T06:43:01.354Z,3.50
2023-03-29T06:43:34.017Z,3.80
2023-03-29T06:44:06.680Z,3.40
2023-03-29T06:44:39.353Z,3.40
2023-03-29T06:45:12.037Z,3.30
2023-03-29T06:45:44.763Z,3.50
2023-03-29T06:46:17.436Z,3.40
2023-03-29T06:46:50.134Z,3.50
2023-03-29T06:47:22.854Z,3.30
2023-03-29T06:47:55.544Z,3.30
2023-03-29T06:48:28.226Z,3.50
2023-03-29T06:49:00.873Z,3.60
2023-03-29T06:49:33.541Z,3.30
2023-03-29T06:50:06.225Z,3.50
2023-03-29T06:50:38.879Z,3.50
2023-03-29T06:51:11.561Z,3.50
2023-03-29T06:51:44.249Z,3.50
2023-03-29T06:52:16.915Z,3.60
2023-03-29T06:52:49.641Z,3.60
2023-03-29T06:53:22.545Z,3.40
2023-03-29T06:53:55.200Z,3.30
2023-03-29T06:54:27.874Z,3.30
2023-03-29T06:55:00.563Z,3.60
2023-03-29T06:55:33.207Z,3.40
2023-03-29T06:56:05.896Z,3.50
2023-03-29T06:56:38.566Z,3.40
2023-03-29T06:57:11.236Z,3.40
2023-03-29T06:57:43.893Z,3.40
2023-03-29T06:58:16.556Z,3.60
2023-03-29T06:58:49.220Z,3.30
2023-03-29T06:59:21.915Z,3.20
2023-03-29T06:59:54.575Z,3.50
2023-03-29T07:00:27.241Z,3.40
2023-03-29T07:01:00.101Z,3.40
2023-03-29T07:01:32.886Z,3.30
2023-03-29T07:02:05.643Z,3.30
2023-03-29T07:02:38.439Z,3.60
2023-03-29T07:03:11.197Z,3.60
2023-03-29T07:03:46.019Z,3.30
2023-03-29T07:04:12.771Z,3.40
2023-03-29T07:04:45.508Z,3.30
2023-03-29T07:05:18.227Z,3.20
2023-03-29T07:05:50.904Z,3.00
2023-03-29T07:06:23.570Z,3.60
2023-03-29T07:06:56.243Z,3.40
2023-03-29T07:07:28.902Z,3.40
2023-03-29T07:08:01.574Z,3.60
2023-03-29T07:08:34.263Z,3.50
2023-03-29T07:09:06.945Z,3.30
2023-03-29T07:09:39.599Z,3.40
2023-03-29T07:10:12.431Z,3.60
2023-03-29T07:10:43.382Z,4.00
2023-03-29T07:11:16.048Z,3.40
2023-03-29T07:11:48.717Z,3.90
2023-03-29T07:12:21.380Z,3.50
2023-03-29T07:12:54.130Z,3.60